createdAt,value
2022-09-16T00:01:44.195Z,97785.15
2022-09-16T00:04:55.840Z,97795.38
2022-09-16T00:08:07.823Z,97799.43
2022-09-16T00:11:20.959Z,97797.41
2022-09-16T00:14:32.743Z,97807.33
2022-09-16T00:17:45.048Z,97806.50
2022-09-16T00:20:58.760Z,97807.33
2022-09-16T00:24:13.286Z,97808.62
2022-09-16T00:27:25.782Z,97813.41
2022-09-16T00:30:38.042Z,97812.56
2022-09-16T00:33:50.191Z,97818.55
2022-09-16T00:37:03.434Z,97814.48
2022-09-16T00:40:16.892Z,97824.97
2022-09-16T00:43:28.692Z,97826.45
2022-09-16T00:46:46.440Z,97820.72
2022-09-16T00:50:01.405Z,97826.89
2022-09-16T00:53:17.310Z,97815.77
2022-09-16T00:56:31.093Z,97812.46
2022-09-16T00:59:47.177Z,97815.38
2022-09-16T01:02:59.461Z,97817.05
2022-09-16T01:06:14.116Z,97831.84
2022-09-16T01:09:29.402Z,97829.17
2022-09-16T01:12:42.487Z,97833.71
2022-09-16T01:16:00.735Z,97832.68
2022-09-16T01:19:17.377Z,97826.50
2022-09-16T01:22:42.640Z,97844.00
2022-09-16T01:26:07.246Z,97846.03
2022-09-16T01:30:02.513Z,97841.72
2022-09-16T01:33:22.037Z,97846.67
2022-09-16T01:36:44.945Z,97845.39
2022-09-16T01:40:03.328Z,97847.86
2022-09-16T01:43:21.376Z,97845.03
2022-09-16T01:46:40.676Z,97834.70
2022-09-16T01:49:59.885Z,97843.55
2022-09-16T01:53:16.902Z,97841.44
2022-09-16T01:56:34.229Z,97847.80
2022-09-16T01:59:50.629Z,97835.39
2022-09-16T02:03:06.035Z,97838.51
2022-09-16T02:06:23.128Z,97840.54
2022-09-16T02:09:36.118Z,97836.65
2022-09-16T02:12:50.048Z,97839.16
2022-09-16T02:16:06.045Z,97837.03
2022-09-16T02:19:22.654Z,97836.59
2022-09-16T02:22:40.413Z,97840.00
2022-09-16T02:25:55.427Z,97847.62
2022-09-16T02:29:10.875Z,97845.98
2022-09-16T02:32:24.467Z,97855.37
2022-09-16T02:35:37.053Z,97856.10
2022-09-16T02:38:54.601Z,97856.45
2022-09-16T02:42:07.772Z,97854.17
2022-09-16T02:45:20.087Z,97859.86
2022-09-16T02:48:40.441Z,97863.74
2022-09-16T02:51:59.595Z,97865.95
2022-09-16T02:55:17.609Z,97857.77
2022-09-16T02:58:29.784Z,97859.59
2022-09-16T03:01:45.565Z,97854.45
2022-09-16T03:04:57.488Z,97860.63
2022-09-16T03:08:09.842Z,97855.00
2022-09-16T03:11:52.510Z,97855.38
2022-09-16T03:15:43.691Z,97857.02
2022-09-16T03:19:12.945Z,97847.53
2022-09-16T03:22:33.134Z,97851.23
2022-09-16T03:25:55.173Z,97857.74
2022-09-16T03:29:17.661Z,97858.13
2022-09-16T03:32:34.674Z,97861.79
2022-09-16T03:35:51.827Z,97860.95
2022-09-16T03:39:05.100Z,97856.83
2022-09-16T03:42:18.361Z,97857.19
2022-09-16T03:45:30.121Z,97850.21
2022-09-16T03:48:41.823Z,97857.56
2022-09-16T03:51:53.442Z,97852.13
2022-09-16T03:55:05.238Z,97848.80
2022-09-16T03:58:16.927Z,97858.64
2022-09-16T04:01:28.640Z,97853.03
2022-09-16T04:04:40.405Z,97845.76
2022-09-16T04:07:54.464Z,97845.76
2022-09-16T04:11:08.421Z,97858.75
2022-09-16T04:14:20.387Z,97864.45
2022-09-16T04:17:32.551Z,97852.23
2022-09-16T04:20:47.253Z,97870.50
2022-09-16T04:23:59.455Z,97869.02
2022-09-16T04:27:11.465Z,97877.84
2022-09-16T04:30:23.949Z,97886.03
2022-09-16T04:33:38.940Z,97884.36
2022-09-16T04:36:50.872Z,97882.80
2022-09-16T04:40:04.970Z,97880.79
2022-09-16T04:43:16.615Z,97885.13
2022-09-16T04:46:28.830Z,97891.11
2022-09-16T04:49:40.599Z,97894.05
2022-09-16T04:52:52.179Z,97888.41
2022-09-16T04:56:14.142Z,97886.85
2022-09-16T04:59:26.541Z,97880.61
2022-09-16T05:02:38.257Z,97868.95
2022-09-16T05:05:50.134Z,97887.62
2022-09-16T05:09:03.377Z,97893.79
2022-09-16T05:12:15.875Z,97891.77
2022-09-16T05:15:27.846Z,97907.05
2022-09-16T05:18:39.892Z,97904.30
2022-09-16T05:21:51.568Z,97906.97
2022-09-16T05:25:04.277Z,97909.55
2022-09-16T05:28:16.082Z,97900.08
2022-09-16T05:31:30.580Z,97890.61
2022-09-16T05:34:42.359Z,97898.78
2022-09-16T05:37:55.513Z,97897.74
2022-09-16T05:41:08.864Z,97905.00
2022-09-16T05:44:20.753Z,97902.14
2022-09-16T05:47:32.460Z,97896.16
2022-09-16T05:50:44.134Z,97893.48
2022-09-16T05:53:57.423Z,97896.16
2022-09-16T05:57:09.595Z,97891.94
2022-09-16T06:00:23.023Z,97891.58
2022-09-16T06:03:35.810Z,97884.27
2022-09-16T06:06:49.535Z,97883.86
2022-09-16T06:10:01.460Z,97875.36
2022-09-16T06:13:13.350Z,97874.22
2022-09-16T06:16:25.947Z,97870.17
2022-09-16T06:19:37.959Z,97867.20
2022-09-16T06:22:49.982Z,97870.91
2022-09-16T06:26:09.483Z,97868.88
2022-09-16T06:29:22.721Z,97869.84
2022-09-16T06:32:38.236Z,97865.34
2022-09-16T06:35:51.599Z,97872.31
2022-09-16T06:39:04.150Z,97876.05
2022-09-16T06:42:19.043Z,97866.18
2022-09-16T06:45:30.832Z,97873.58
2022-09-16T06:48:42.817Z,97861.41
2022-09-16T06:51:55.191Z,97865.53
2022-09-16T06:55:07.073Z,97862.01
2022-09-16T06:58:18.682Z,97870.97
2022-09-16T07:01:32.760Z,97871.59
2022-09-16T07:04:44.832Z,97866.61
2022-09-16T07:07:58.010Z,97870.09
2022-09-16T07:11:12.204Z,97865.24
2022-09-16T07:14:24.122Z,97864.78
2022-09-16T07:17:35.886Z,97868.08
2022-09-16T07:20:48.129Z,97875.33
2022-09-16T07:24:04.821Z,97882.63
2022-09-16T07:27:16.709Z,97877.33
2022-09-16T07:30:30.267Z,97875.44
2022-09-16T07:33:46.231Z,97872.30
2022-09-16T07:36:58.487Z,97867.39
2022-09-16T07:40:13.605Z,97857.47
2022-09-16T07:43:25.539Z,97855.22
2022-09-16T07:46:40.486Z,97854.63
2022-09-16T07:49:54.388Z,97851.69
2022-09-16T07:53:06.098Z,97860.73
2022-09-16T07:56:21.869Z,97858.52
2022-09-16T07:59:33.773Z,97861.53
2022-09-16T08:02:45.842Z,97854.92
2022-09-16T08:05:58.143Z,97847.98
2022-09-16T08:09:34.291Z,97876.88
2022-09-16T08:12:23.772Z,97875.08
2022-09-16T08:15:35.394Z,97876.86
2022-09-16T08:18:48.195Z,97877.08
2022-09-16T08:22:00.421Z,97887.89
2022-09-16T08:25:13.959Z,97882.20
2022-09-16T08:28:25.802Z,97893.77
2022-09-16T08:31:37.603Z,97879.48
2022-09-16T08:34:49.479Z,97882.61
2022-09-16T08:38:01.602Z,97882.63
2022-09-16T08:41:27.074Z,97877.80
2022-09-16T08:44:46.647Z,97875.06
2022-09-16T08:48:16.868Z,97877.40
2022-09-16T08:51:30.588Z,97880.23
2022-09-16T08:54:48.976Z,97880.45
2022-09-16T08:58:07.355Z,97883.18
2022-09-16T09:01:27.801Z,97887.88
2022-09-16T09:04:39.664Z,97883.82
2022-09-16T09:08:06.060Z,97884.11
2022-09-16T09:11:24.863Z,97881.66
2022-09-16T09:14:47.225Z,97895.70
2022-09-16T09:18:15.190Z,97890.75
2022-09-16T09:21:32.408Z,97892.58
2022-09-16T09:25:03.019Z,97888.07
2022-09-16T09:28:36.103Z,97891.57
2022-09-16T09:31:55.513Z,97891.98
2022-09-16T09:35:29.686Z,97891.45
2022-09-16T09:38:54.942Z,97874.46
2022-09-16T09:42:16.224Z,97878.36
2022-09-16T09:45:34.174Z,97884.43
2022-09-16T09:48:50.696Z,97882.27
2022-09-16T09:52:08.530Z,97887.95
2022-09-16T09:55:25.928Z,97895.05
2022-09-16T09:58:44.066Z,97888.53
2022-09-16T10:02:01.728Z,97888.50
2022-09-16T10:05:19.008Z,97881.59
2022-09-16T10:08:37.430Z,97891.73
2022-09-16T10:11:59.836Z,97885.79
2022-09-16T10:15:22.513Z,97879.58
2022-09-16T10:18:37.772Z,97879.58
2022-09-16T10:21:54.271Z,97880.98
2022-09-16T10:25:10.321Z,97876.23
2022-09-16T10:28:31.722Z,97876.28
2022-09-16T10:31:46.558Z,97876.72
2022-09-16T10:34:58.639Z,97868.84
2022-09-16T10:38:20.355Z,97862.84
2022-09-16T10:41:34.724Z,97870.87
2022-09-16T10:44:48.666Z,97859.04
2022-09-16T10:48:06.593Z,97863.11
2022-09-16T10:51:39.561Z,97848.77
2022-09-16T10:54:51.883Z,97850.86
2022-09-16T10:58:19.917Z,97842.12
2022-09-16T11:01:47.283Z,97848.53
2022-09-16T11:05:06.206Z,97847.06
2022-09-16T11:08:25.794Z,97849.33
2022-09-16T11:11:54.604Z,97857.32
2022-09-16T11:15:13.995Z,97851.19
2022-09-16T11:18:52.246Z,97843.98
2022-09-16T11:22:17.749Z,97838.02
2022-09-16T11:25:54.565Z,97838.82
2022-09-16T11:29:33.263Z,97835.95
2022-09-16T11:33:03.569Z,97827.23
2022-09-16T11:36:32.873Z,97823.19
2022-09-16T11:40:06.347Z,97816.11
2022-09-16T11:43:41.955Z,97824.61
2022-09-16T11:47:04.246Z,97816.11
2022-09-16T11:50:30.127Z,97799.94
2022-09-16T11:53:58.165Z,97809.25
2022-09-16T11:57:18.487Z,97800.09
2022-09-16T12:00:30.659Z,97802.64
2022-09-16T12:03:49.676Z,97799.47
2022-09-16T12:07:08.028Z,97798.86
2022-09-16T12:10:26.883Z,97812.58
2022-09-16T12:13:44.845Z,97816.66
2022-09-16T12:17:00.991Z,97808.63
2022-09-16T12:20:20.767Z,97806.88
2022-09-16T12:23:37.939Z,97816.00
2022-09-16T12:26:51.775Z,97831.25
2022-09-16T12:30:09.453Z,97843.12
2022-09-16T12:33:26.804Z,97855.44
2022-09-16T12:36:42.269Z,97860.11
2022-09-16T12:39:56.169Z,97858.14
2022-09-16T12:43:44.427Z,97863.91
2022-09-16T12:47:18.270Z,97857.50
2022-09-16T12:51:03.595Z,97853.77
2022-09-16T12:55:06.625Z,97848.41
2022-09-16T12:58:28.708Z,97850.88
2022-09-16T13:01:51.012Z,97846.97
2022-09-16T13:05:08.805Z,97842.22
2022-09-16T13:08:30.516Z,97836.63
2022-09-16T13:12:31.705Z,97838.01
2022-09-16T13:15:13.181Z,97839.45
2022-09-16T13:18:44.504Z,97839.50
2022-09-16T13:22:08.389Z,97832.70
2022-09-16T13:25:36.624Z,97808.54
2022-09-16T13:28:54.164Z,97829.41
2022-09-16T13:32:06.282Z,97832.87
2022-09-16T13:35:44.724Z,97824.61
2022-09-16T13:39:03.690Z,97824.20
2022-09-16T13:42:26.172Z,97821.31
2022-09-16T13:45:48.889Z,97825.08
2022-09-16T13:49:25.042Z,97820.98
2022-09-16T13:53:03.936Z,97814.81
2022-09-16T13:56:39.084Z,97812.13
2022-09-16T14:00:17.956Z,97817.67
2022-09-16T14:03:53.505Z,97808.42
2022-09-16T14:07:25.746Z,97806.75
2022-09-16T14:10:46.841Z,97804.88
2022-09-16T14:14:46.400Z,97798.71
2022-09-16T14:17:51.468Z,97794.77
2022-09-16T14:21:36.289Z,97792.53
2022-09-16T14:28:44.791Z,97780.77
2022-09-16T14:32:10.357Z,97784.28
2022-09-16T14:35:27.302Z,97778.08
2022-09-16T14:38:53.603Z,97778.91
2022-09-16T14:42:11.287Z,97777.05
2022-09-16T14:45:33.934Z,97774.37
2022-09-16T14:49:04.045Z,97771.48
2022-09-16T14:52:26.522Z,97772.72
2022-09-16T14:55:40.607Z,97773.13
2022-09-16T14:58:53.771Z,97763.63
2022-09-16T15:02:10.117Z,97764.05
2022-09-16T15:05:30.684Z,97758.69
2022-09-16T15:08:47.690Z,97766.52
2022-09-16T15:12:03.914Z,97762.81
2022-09-16T15:15:25.293Z,97761.58
2022-09-16T15:18:39.758Z,97757.05
2022-09-16T15:21:52.364Z,97754.98
2022-09-16T15:25:05.495Z,97753.32
2022-09-16T15:28:25.711Z,97759.30
2022-09-16T15:31:41.089Z,97747.95
2022-09-16T15:34:55.297Z,97750.85
2022-09-16T15:38:24.615Z,97753.13
2022-09-16T15:41:36.841Z,97756.61
2022-09-16T15:44:56.527Z,97753.31
2022-09-16T15:48:14.209Z,97744.25
2022-09-16T15:51:36.395Z,97738.08
2022-09-16T15:54:55.829Z,97732.31
2022-09-16T15:58:14.569Z,97736.83
2022-09-16T16:01:41.377Z,97730.63
2022-09-16T16:04:53.509Z,97732.08
2022-09-16T16:08:10.084Z,97744.67
2022-09-16T16:11:25.677Z,97739.67
2022-09-16T16:14:39.423Z,97743.17
2022-09-16T16:17:53.334Z,97737.83
2022-09-16T16:21:08.697Z,97741.73
2022-09-16T16:24:20.745Z,97751.41
2022-09-16T16:27:34.654Z,97749.97
2022-09-16T16:30:46.567Z,97756.76
2022-09-16T16:33:58.432Z,97758.58
2022-09-16T16:37:27.926Z,97755.67
2022-09-16T16:40:27.023Z,97758.77
2022-09-16T16:43:38.887Z,97762.05
2022-09-16T16:46:50.619Z,97762.81
2022-09-16T16:50:02.294Z,97763.19
2022-09-16T16:53:14.130Z,97768.34
2022-09-16T16:56:26.394Z,97775.32
2022-09-16T16:59:38.189Z,97769.52
2022-09-16T17:02:50.453Z,97761.27
2022-09-16T17:06:02.340Z,97765.70
2022-09-16T17:09:17.040Z,97764.65
2022-09-16T17:12:28.835Z,97771.21
2022-09-16T17:15:41.337Z,97765.39
2022-09-16T17:18:54.780Z,97777.93
2022-09-16T17:22:06.517Z,97754.63
2022-09-16T17:25:18.632Z,97771.72
2022-09-16T17:28:30.685Z,97770.05
2022-09-16T17:31:43.529Z,97763.59
2022-09-16T17:34:55.345Z,97767.68
2022-09-16T17:38:07.859Z,97757.82
2022-09-16T17:41:22.507Z,97762.16
2022-09-16T17:44:34.737Z,97756.61
2022-09-16T17:47:46.572Z,97757.88
2022-09-16T17:51:00.153Z,97767.16
2022-09-16T17:54:12.850Z,97765.12
2022-09-16T17:57:27.989Z,97771.47
2022-09-16T18:00:40.428Z,97767.79
2022-09-16T18:03:55.762Z,97774.98
2022-09-16T18:07:07.789Z,97773.34
2022-09-16T18:10:20.009Z,97779.89
2022-09-16T18:13:31.963Z,97773.63
2022-09-16T18:16:45.545Z,97786.02
2022-09-16T18:19:57.369Z,97779.21
2022-09-16T18:23:09.383Z,97785.13
2022-09-16T18:26:22.937Z,97788.58
2022-09-16T18:29:35.663Z,97791.66
2022-09-16T18:32:50.564Z,97793.06
2022-09-16T18:36:08.735Z,97792.42
2022-09-16T18:39:22.108Z,97788.12
2022-09-16T18:42:34.277Z,97792.63
2022-09-16T18:45:46.506Z,97784.61
2022-09-16T18:48:59.974Z,97799.18
2022-09-16T18:52:20.510Z,97799.95
2022-09-16T18:55:44.435Z,97801.34
2022-09-16T18:59:19.988Z,97787.16
2022-09-16T19:02:15.034Z,97799.20
2022-09-16T19:05:27.511Z,97799.33
2022-09-16T19:08:40.168Z,97795.51
2022-09-16T19:12:01.533Z,97805.84
2022-09-16T19:15:16.629Z,97797.11
2022-09-16T19:18:28.782Z,97807.35
2022-09-16T19:21:42.171Z,97807.06
2022-09-16T19:24:57.084Z,97807.02
2022-09-16T19:28:10.697Z,97801.95
2022-09-16T19:31:23.582Z,97805.84
2022-09-16T19:34:35.746Z,97805.56
2022-09-16T19:37:51.180Z,97801.36
2022-09-16T19:41:10.915Z,97811.74
2022-09-16T19:44:23.808Z,97806.59
2022-09-16T19:47:36.622Z,97797.95
2022-09-16T19:50:50.349Z,97804.67
2022-09-16T19:54:03.132Z,97790.23
2022-09-16T19:57:14.920Z,97787.77
2022-09-16T20:00:36.712Z,97788.59
2022-09-16T20:03:44.068Z,97793.55
2022-09-16T20:06:56.424Z,97799.98
2022-09-16T20:10:09.140Z,97807.98
2022-09-16T20:13:20.822Z,97800.17
2022-09-16T20:16:35.750Z,97802.64
2022-09-16T20:19:47.866Z,97803.92
2022-09-16T20:22:59.768Z,97801.91
2022-09-16T20:26:15.101Z,97804.22
2022-09-16T20:29:30.023Z,97793.34
2022-09-16T20:32:41.699Z,97804.66
2022-09-16T20:35:53.306Z,97807.69
2022-09-16T20:39:06.180Z,97808.08
2022-09-16T20:42:17.982Z,97808.08
2022-09-16T20:45:29.907Z,97808.43
2022-09-16T20:48:42.486Z,97805.13
2022-09-16T20:51:54.553Z,97811.84
2022-09-16T20:55:06.447Z,97798.44
2022-09-16T20:58:18.349Z,97800.01
2022-09-16T21:01:32.730Z,97802.13
2022-09-16T21:04:44.569Z,97808.19
2022-09-16T21:07:56.431Z,97811.48
2022-09-16T21:11:15.611Z,97810.57
2022-09-16T21:14:27.611Z,97814.77
2022-09-16T21:17:39.479Z,97821.16
2022-09-16T21:20:51.287Z,97832.92
2022-09-16T21:24:06.665Z,97832.09
2022-09-16T21:27:18.306Z,97824.50
2022-09-16T21:30:30.761Z,97842.44
2022-09-16T21:33:44.715Z,97845.29
2022-09-16T21:36:59.389Z,97838.32
2022-09-16T21:40:14.216Z,97843.00
2022-09-16T21:43:29.881Z,97840.67
2022-09-16T21:46:45.428Z,97843.06
2022-09-16T21:49:59.146Z,97841.39
2022-09-16T21:53:10.803Z,97843.41
2022-09-16T21:56:25.941Z,97846.59
2022-09-16T21:59:37.771Z,97841.17
2022-09-16T22:02:49.520Z,97846.19
2022-09-16T22:06:04.919Z,97841.88
2022-09-16T22:09:18.115Z,97837.45
2022-09-16T22:12:29.987Z,97844.13
2022-09-16T22:15:42.572Z,97839.80
2022-09-16T22:18:54.702Z,97842.64
2022-09-16T22:22:06.296Z,97832.98
2022-09-16T22:25:18.448Z,97838.02
2022-09-16T22:28:30.157Z,97836.06
2022-09-16T22:31:44.642Z,97852.03
2022-09-16T22:34:56.472Z,97849.55
2022-09-16T22:38:08.442Z,97843.58
2022-09-16T22:41:21.651Z,97849.42
2022-09-16T22:44:33.406Z,97848.11
2022-09-16T22:47:45.346Z,97833.58
2022-09-16T22:51:04.003Z,97853.52
2022-09-16T22:54:17.607Z,97854.87
2022-09-16T22:57:29.815Z,97855.05
2022-09-16T23:00:41.588Z,97856.21
2022-09-16T23:03:58.057Z,97856.58
2022-09-16T23:07:10.310Z,97845.28
2022-09-16T23:10:22.210Z,97846.92
2022-09-16T23:13:34.055Z,97848.59
2022-09-16T23:16:46.013Z,97837.95
2022-09-16T23:19:57.875Z,97841.92
2022-09-16T23:23:10.118Z,97846.23
2022-09-16T23:26:24.178Z,97840.91
2022-09-16T23:29:35.901Z,97841.56
2022-09-16T23:32:47.680Z,97840.76
2022-09-16T23:35:59.776Z,97841.92
2022-09-16T23:39:13.502Z,97841.27
2022-09-16T23:42:25.500Z,97836.94
2022-09-16T23:45:37.224Z,97838.61
2022-09-16T23:48:50.965Z,97840.61
2022-09-16T23:52:02.567Z,97854.09
2022-09-16T23:55:16.276Z,97863.42
2022-09-16T23:58:28.531Z,97862.77
